sensor_id;sensor_type;location;lat;lon;timestamp;P1;durP1;ratioP1;P2;durP2;ratioP2
5042;SDS011;2540;50.928;6.856;2023-04-23T00:00:07;18.50;;;11.63;;
5042;SDS011;2540;50.928;6.856;2023-04-23T00:02:36;19.80;;;12.63;;
5042;SDS011;2540;50.928;6.856;2023-04-23T00:05:02;18.57;;;11.97;;
5042;SDS011;2540;50.928;6.856;2023-04-23T00:07:30;17.53;;;12.77;;
5042;SDS011;2540;50.928;6.856;2023-04-23T00:09:56;18.57;;;12.00;;
5042;SDS011;2540;50.928;6.856;2023-04-23T00:12:22;18.90;;;12.20;;
5042;SDS011;2540;50.928;6.856;2023-04-23T00:14:47;20.33;;;11.37;;
5042;SDS011;2540;50.928;6.856;2023-04-23T00:17:13;21.43;;;14.07;;
5042;SDS011;2540;50.928;6.856;2023-04-23T00:19:38;21.87;;;13.50;;
5042;SDS011;2540;50.928;6.856;2023-04-23T00:22:03;19.67;;;13.13;;
5042;SDS011;2540;50.928;6.856;2023-04-23T00:24:30;18.80;;;12.57;;
5042;SDS011;2540;50.928;6.856;2023-04-23T00:26:55;18.93;;;11.67;;
5042;SDS011;2540;50.928;6.856;2023-04-23T00:29:21;20.67;;;12.73;;
5042;SDS011;2540;50.928;6.856;2023-04-23T00:31:46;19.23;;;12.10;;
5042;SDS011;2540;50.928;6.856;2023-04-23T00:34:11;19.67;;;12.10;;
5042;SDS011;2540;50.928;6.856;2023-04-23T00:36:37;21.20;;;12.70;;
5042;SDS011;2540;50.928;6.856;2023-04-23T00:39:02;20.67;;;13.27;;
5042;SDS011;2540;50.928;6.856;2023-04-23T00:41:27;19.67;;;11.90;;
5042;SDS011;2540;50.928;6.856;2023-04-23T00:43:53;18.63;;;11.57;;
5042;SDS011;2540;50.928;6.856;2023-04-23T00:46:21;18.83;;;11.10;;
5042;SDS011;2540;50.928;6.856;2023-04-23T00:48:46;18.40;;;12.27;;
5042;SDS011;2540;50.928;6.856;2023-04-23T00:51:12;18.07;;;11.60;;
5042;SDS011;2540;50.928;6.856;2023-04-23T00:53:37;20.83;;;12.10;;
5042;SDS011;2540;50.928;6.856;2023-04-23T00:56:02;18.60;;;13.00;;
5042;SDS011;2540;50.928;6.856;2023-04-23T00:58:29;19.80;;;12.23;;
5042;SDS011;2540;50.928;6.856;2023-04-23T01:00:54;19.50;;;12.57;;
5042;SDS011;2540;50.928;6.856;2023-04-23T01:03:20;19.10;;;12.30;;
5042;SDS011;2540;50.928;6.856;2023-04-23T01:05:47;19.10;;;12.57;;
5042;SDS011;2540;50.928;6.856;2023-04-23T01:08:13;19.20;;;13.07;;
5042;SDS011;2540;50.928;6.856;2023-04-23T01:10:40;24.33;;;14.23;;
5042;SDS011;2540;50.928;6.856;2023-04-23T01:13:07;21.50;;;12.97;;
5042;SDS011;2540;50.928;6.856;2023-04-23T01:15:32;19.10;;;12.20;;
5042;SDS011;2540;50.928;6.856;2023-04-23T01:17:57;19.03;;;12.93;;
5042;SDS011;2540;50.928;6.856;2023-04-23T01:20:23;22.00;;;13.07;;
5042;SDS011;2540;50.928;6.856;2023-04-23T01:22:48;23.10;;;13.20;;
5042;SDS011;2540;50.928;6.856;2023-04-23T01:25:14;20.40;;;13.30;;
5042;SDS011;2540;50.928;6.856;2023-04-23T01:27:40;21.27;;;14.00;;
5042;SDS011;2540;50.928;6.856;2023-04-23T01:30:06;24.80;;;13.93;;
5042;SDS011;2540;50.928;6.856;2023-04-23T01:32:32;22.13;;;13.17;;
5042;SDS011;2540;50.928;6.856;2023-04-23T01:34:58;20.80;;;13.63;;
5042;SDS011;2540;50.928;6.856;2023-04-23T01:37:23;21.47;;;12.73;;
5042;SDS011;2540;50.928;6.856;2023-04-23T01:39:49;19.60;;;13.10;;
5042;SDS011;2540;50.928;6.856;2023-04-23T01:42:15;21.03;;;13.83;;
5042;SDS011;2540;50.928;6.856;2023-04-23T01:44:40;20.13;;;13.90;;
5042;SDS011;2540;50.928;6.856;2023-04-23T01:47:06;25.93;;;14.80;;
5042;SDS011;2540;50.928;6.856;2023-04-23T01:49:31;24.70;;;14.50;;
5042;SDS011;2540;50.928;6.856;2023-04-23T01:51:57;22.80;;;14.20;;
5042;SDS011;2540;50.928;6.856;2023-04-23T01:54:22;23.53;;;15.07;;
5042;SDS011;2540;50.928;6.856;2023-04-23T01:56:47;25.47;;;15.50;;
5042;SDS011;2540;50.928;6.856;2023-04-23T01:59:13;25.10;;;15.43;;
5042;SDS011;2540;50.928;6.856;2023-04-23T02:01:43;26.90;;;15.90;;
5042;SDS011;2540;50.928;6.856;2023-04-23T02:04:09;22.57;;;14.90;;
5042;SDS011;2540;50.928;6.856;2023-04-23T02:06:36;26.37;;;15.47;;
5042;SDS011;2540;50.928;6.856;2023-04-23T02:09:01;24.97;;;16.37;;
5042;SDS011;2540;50.928;6.856;2023-04-23T02:11:26;29.07;;;16.20;;
5042;SDS011;2540;50.928;6.856;2023-04-23T02:13:52;25.33;;;16.60;;
5042;SDS011;2540;50.928;6.856;2023-04-23T02:16:17;30.70;;;19.07;;
5042;SDS011;2540;50.928;6.856;2023-04-23T02:18:43;26.87;;;16.47;;
5042;SDS011;2540;50.928;6.856;2023-04-23T02:21:09;28.50;;;17.40;;
5042;SDS011;2540;50.928;6.856;2023-04-23T02:23:35;32.57;;;18.77;;
5042;SDS011;2540;50.928;6.856;2023-04-23T02:26:00;31.80;;;18.67;;
5042;SDS011;2540;50.928;6.856;2023-04-23T02:28:25;34.27;;;19.50;;
5042;SDS011;2540;50.928;6.856;2023-04-23T02:30:51;35.27;;;19.27;;
5042;SDS011;2540;50.928;6.856;2023-04-23T02:33:16;30.97;;;18.57;;
5042;SDS011;2540;50.928;6.856;2023-04-23T02:35:43;32.37;;;18.50;;
5042;SDS011;2540;50.928;6.856;2023-04-23T02:38:09;32.37;;;19.30;;
5042;SDS011;2540;50.928;6.856;2023-04-23T02:40:34;26.40;;;17.37;;
5042;SDS011;2540;50.928;6.856;2023-04-23T02:43:00;30.90;;;18.13;;
5042;SDS011;2540;50.928;6.856;2023-04-23T02:45:25;30.00;;;17.50;;
5042;SDS011;2540;50.928;6.856;2023-04-23T02:47:51;29.77;;;18.80;;
5042;SDS011;2540;50.928;6.856;2023-04-23T02:50:17;32.53;;;17.13;;
5042;SDS011;2540;50.928;6.856;2023-04-23T02:52:42;28.30;;;17.53;;
5042;SDS011;2540;50.928;6.856;2023-04-23T02:55:08;30.40;;;18.77;;
5042;SDS011;2540;50.928;6.856;2023-04-23T02:57:34;28.33;;;18.70;;
5042;SDS011;2540;50.928;6.856;2023-04-23T03:00:00;27.77;;;17.70;;
5042;SDS011;2540;50.928;6.856;2023-04-23T03:02:25;31.40;;;18.50;;
5042;SDS011;2540;50.928;6.856;2023-04-23T03:04:50;32.63;;;18.43;;
5042;SDS011;2540;50.928;6.856;2023-04-23T03:07:16;33.67;;;19.20;;
5042;SDS011;2540;50.928;6.856;2023-04-23T03:09:41;30.97;;;18.80;;
5042;SDS011;2540;50.928;6.856;2023-04-23T03:12:07;30.27;;;18.67;;
5042;SDS011;2540;50.928;6.856;2023-04-23T03:14:32;28.83;;;18.53;;
5042;SDS011;2540;50.928;6.856;2023-04-23T03:16:58;27.70;;;17.60;;
5042;SDS011;2540;50.928;6.856;2023-04-23T03:19:23;28.70;;;18.20;;
5042;SDS011;2540;50.928;6.856;2023-04-23T03:21:48;31.00;;;18.20;;
5042;SDS011;2540;50.928;6.856;2023-04-23T03:24:14;35.93;;;20.60;;
5042;SDS011;2540;50.928;6.856;2023-04-23T03:26:40;36.33;;;19.37;;
5042;SDS011;2540;50.928;6.856;2023-04-23T03:29:05;30.53;;;19.40;;
5042;SDS011;2540;50.928;6.856;2023-04-23T03:31:31;32.57;;;20.20;;
5042;SDS011;2540;50.928;6.856;2023-04-23T03:33:56;31.80;;;19.27;;
5042;SDS011;2540;50.928;6.856;2023-04-23T03:36:22;32.03;;;19.33;;
5042;SDS011;2540;50.928;6.856;2023-04-23T03:38:47;34.20;;;19.40;;
5042;SDS011;2540;50.928;6.856;2023-04-23T03:41:12;38.10;;;20.90;;
5042;SDS011;2540;50.928;6.856;2023-04-23T03:43:37;35.13;;;21.87;;
5042;SDS011;2540;50.928;6.856;2023-04-23T03:46:03;33.47;;;21.00;;
5042;SDS011;2540;50.928;6.856;2023-04-23T03:48:28;41.83;;;23.33;;
5042;SDS011;2540;50.928;6.856;2023-04-23T03:50:54;41.70;;;23.10;;
5042;SDS011;2540;50.928;6.856;2023-04-23T03:53:19;38.47;;;21.67;;
5042;SDS011;2540;50.928;6.856;2023-04-23T03:55:45;40.30;;;22.63;;
5042;SDS011;2540;50.928;6.856;2023-04-23T03:58:10;37.53;;;22.57;;
5042;SDS011;2540;50.928;6.856;2023-04-23T04:00:36;43.23;;;23.80;;
5042;SDS011;2540;50.928;6.856;2023-04-23T04:03:02;37.13;;;22.00;;
5042;SDS011;2540;50.928;6.856;2023-04-23T04:05:28;41.73;;;23.33;;
5042;SDS011;2540;50.928;6.856;2023-04-23T04:07:53;41.87;;;23.77;;
5042;SDS011;2540;50.928;6.856;2023-04-23T04:10:19;41.20;;;24.07;;
5042;SDS011;2540;50.928;6.856;2023-04-23T04:12:45;43.60;;;26.10;;
5042;SDS011;2540;50.928;6.856;2023-04-23T04:15:11;44.80;;;24.57;;
5042;SDS011;2540;50.928;6.856;2023-04-23T04:17:37;47.00;;;25.37;;
5042;SDS011;2540;50.928;6.856;2023-04-23T04:20:03;46.63;;;25.87;;
5042;SDS011;2540;50.928;6.856;2023-04-23T04:22:28;42.90;;;25.53;;
5042;SDS011;2540;50.928;6.856;2023-04-23T04:24:54;44.50;;;23.57;;
5042;SDS011;2540;50.928;6.856;2023-04-23T04:27:21;40.90;;;24.23;;
5042;SDS011;2540;50.928;6.856;2023-04-23T04:29:46;48.70;;;24.07;;
5042;SDS011;2540;50.928;6.856;2023-04-23T04:32:12;43.97;;;24.60;;
5042;SDS011;2540;50.928;6.856;2023-04-23T04:34:38;48.10;;;26.60;;
5042;SDS011;2540;50.928;6.856;2023-04-23T04:37:03;40.60;;;24.57;;
5042;SDS011;2540;50.928;6.856;2023-04-23T04:39:29;40.57;;;23.37;;
5042;SDS011;2540;50.928;6.856;2023-04-23T04:41:54;41.87;;;24.03;;
5042;SDS011;2540;50.928;6.856;2023-04-23T04:44:21;43.70;;;24.90;;
5042;SDS011;2540;50.928;6.856;2023-04-23T04:46:46;45.40;;;25.23;;
5042;SDS011;2540;50.928;6.856;2023-04-23T04:49:12;38.40;;;22.57;;
5042;SDS011;2540;50.928;6.856;2023-04-23T04:51:38;41.97;;;24.30;;
5042;SDS011;2540;50.928;6.856;2023-04-23T04:54:04;46.07;;;26.10;;
5042;SDS011;2540;50.928;6.856;2023-04-23T04:56:31;43.40;;;23.97;;
5042;SDS011;2540;50.928;6.856;2023-04-23T04:58:56;48.37;;;24.67;;
5042;SDS011;2540;50.928;6.856;2023-04-23T05:01:22;45.27;;;24.53;;
5042;SDS011;2540;50.928;6.856;2023-04-23T05:03:50;43.37;;;24.50;;
5042;SDS011;2540;50.928;6.856;2023-04-23T05:06:16;42.50;;;24.07;;
5042;SDS011;2540;50.928;6.856;2023-04-23T05:08:42;44.60;;;24.40;;
5042;SDS011;2540;50.928;6.856;2023-04-23T05:11:12;42.37;;;24.77;;
5042;SDS011;2540;50.928;6.856;2023-04-23T05:13:38;42.50;;;24.80;;
5042;SDS011;2540;50.928;6.856;2023-04-23T05:16:03;51.77;;;27.03;;
5042;SDS011;2540;50.928;6.856;2023-04-23T05:18:28;51.50;;;26.30;;
5042;SDS011;2540;50.928;6.856;2023-04-23T05:20:54;48.60;;;24.10;;
5042;SDS011;2540;50.928;6.856;2023-04-23T05:23:19;43.33;;;25.17;;
5042;SDS011;2540;50.928;6.856;2023-04-23T05:25:44;41.57;;;24.10;;
5042;SDS011;2540;50.928;6.856;2023-04-23T05:28:10;39.43;;;22.93;;
5042;SDS011;2540;50.928;6.856;2023-04-23T05:30:35;39.03;;;21.90;;
5042;SDS011;2540;50.928;6.856;2023-04-23T05:33:01;35.57;;;20.77;;
5042;SDS011;2540;50.928;6.856;2023-04-23T05:35:26;39.47;;;21.10;;
5042;SDS011;2540;50.928;6.856;2023-04-23T05:37:51;33.73;;;19.33;;
5042;SDS011;2540;50.928;6.856;2023-04-23T05:40:17;38.60;;;21.23;;
5042;SDS011;2540;50.928;6.856;2023-04-23T05:42:42;32.50;;;19.60;;
5042;SDS011;2540;50.928;6.856;2023-04-23T05:45:07;33.40;;;19.83;;
5042;SDS011;2540;50.928;6.856;2023-04-23T05:47:33;32.83;;;19.20;;
5042;SDS011;2540;50.928;6.856;2023-04-23T05:49:58;27.77;;;17.30;;
5042;SDS011;2540;50.928;6.856;2023-04-23T05:52:25;28.80;;;17.17;;
5042;SDS011;2540;50.928;6.856;2023-04-23T05:54:50;28.20;;;16.73;;
5042;SDS011;2540;50.928;6.856;2023-04-23T05:57:16;24.67;;;16.37;;
5042;SDS011;2540;50.928;6.856;2023-04-23T05:59:41;23.40;;;15.40;;
5042;SDS011;2540;50.928;6.856;2023-04-23T06:02:07;25.73;;;16.60;;
5042;SDS011;2540;50.928;6.856;2023-04-23T06:04:33;25.73;;;15.07;;
5042;SDS011;2540;50.928;6.856;2023-04-23T06:06:59;26.53;;;14.57;;
5042;SDS011;2540;50.928;6.856;2023-04-23T06:09:24;19.83;;;13.43;;
5042;SDS011;2540;50.928;6.856;2023-04-23T06:11:50;19.50;;;13.30;;
5042;SDS011;2540;50.928;6.856;2023-04-23T06:14:16;22.43;;;14.60;;
5042;SDS011;2540;50.928;6.856;2023-04-23T06:16:41;24.57;;;15.07;;
5042;SDS011;2540;50.928;6.856;2023-04-23T06:19:07;19.73;;;13.67;;
5042;SDS011;2540;50.928;6.856;2023-04-23T06:21:32;18.43;;;13.00;;
5042;SDS011;2540;50.928;6.856;2023-04-23T06:23:57;21.53;;;13.70;;
5042;SDS011;2540;50.928;6.856;2023-04-23T06:26:23;20.10;;;11.63;;
5042;SDS011;2540;50.928;6.856;2023-04-23T06:28:48;19.80;;;11.57;;
5042;SDS011;2540;50.928;6.856;2023-04-23T06:31:13;15.20;;;10.77;;
5042;SDS011;2540;50.928;6.856;2023-04-23T06:33:39;19.67;;;11.70;;
5042;SDS011;2540;50.928;6.856;2023-04-23T06:36:04;18.73;;;10.97;;
5042;SDS011;2540;50.928;6.856;2023-04-23T06:38:30;13.27;;;9.23;;
5042;SDS011;2540;50.928;6.856;2023-04-23T06:40:56;14.40;;;9.53;;
5042;SDS011;2540;50.928;6.856;2023-04-23T06:43:21;13.83;;;8.83;;
5042;SDS011;2540;50.928;6.856;2023-04-23T06:45:47;12.33;;;8.67;;
5042;SDS011;2540;50.928;6.856;2023-04-23T06:48:12;13.50;;;8.70;;
5042;SDS011;2540;50.928;6.856;2023-04-23T06:50:38;13.17;;;7.63;;
5042;SDS011;2540;50.928;6.856;2023-04-23T06:53:04;13.30;;;8.40;;
5042;SDS011;2540;50.928;6.856;2023-04-23T06:55:29;11.90;;;8.70;;
5042;SDS011;2540;50.928;6.856;2023-04-23T06:57:55;11.63;;;8.40;;
5042;SDS011;2540;50.928;6.856;2023-04-23T07:00:21;12.90;;;8.93;;
5042;SDS011;2540;50.928;6.856;2023-04-23T07:02:47;15.57;;;7.33;;
5042;SDS011;2540;50.928;6.856;2023-04-23T07:05:12;10.00;;;8.33;;
5042;SDS011;2540;50.928;6.856;2023-04-23T07:07:38;10.27;;;8.00;;
5042;SDS011;2540;50.928;6.856;2023-04-23T07:10:04;10.73;;;7.43;;
5042;SDS011;2540;50.928;6.856;2023-04-23T07:12:31;9.83;;;6.20;;
5042;SDS011;2540;50.928;6.856;2023-04-23T07:14:56;6.73;;;5.70;;
5042;SDS011;2540;50.928;6.856;2023-04-23T07:17:21;9.50;;;5.00;;
5042;SDS011;2540;50.928;6.856;2023-04-23T07:19:46;7.30;;;4.50;;
5042;SDS011;2540;50.928;6.856;2023-04-23T07:22:12;5.17;;;4.37;;
5042;SDS011;2540;50.928;6.856;2023-04-23T07:24:37;7.10;;;5.00;;
5042;SDS011;2540;50.928;6.856;2023-04-23T07:27:06;5.97;;;4.17;;
5042;SDS011;2540;50.928;6.856;2023-04-23T07:29:31;8.27;;;4.57;;
5042;SDS011;2540;50.928;6.856;2023-04-23T07:31:56;6.83;;;4.73;;
5042;SDS011;2540;50.928;6.856;2023-04-23T07:34:22;6.77;;;4.73;;
5042;SDS011;2540;50.928;6.856;2023-04-23T07:36:47;5.17;;;4.10;;
5042;SDS011;2540;50.928;6.856;2023-04-23T07:39:12;6.30;;;3.90;;
5042;SDS011;2540;50.928;6.856;2023-04-23T07:41:38;7.87;;;3.77;;
5042;SDS011;2540;50.928;6.856;2023-04-23T07:44:03;6.90;;;3.73;;
5042;SDS011;2540;50.928;6.856;2023-04-23T07:46:29;7.23;;;3.30;;
5042;SDS011;2540;50.928;6.856;2023-04-23T07:48:54;8.80;;;3.13;;
5042;SDS011;2540;50.928;6.856;2023-04-23T07:51:20;9.20;;;5.00;;
5042;SDS011;2540;50.928;6.856;2023-04-23T07:53:46;7.30;;;3.70;;
5042;SDS011;2540;50.928;6.856;2023-04-23T07:56:15;7.40;;;3.90;;
5042;SDS011;2540;50.928;6.856;2023-04-23T07:58:40;6.50;;;3.47;;
5042;SDS011;2540;50.928;6.856;2023-04-23T08:01:05;5.27;;;4.03;;
5042;SDS011;2540;50.928;6.856;2023-04-23T08:03:31;5.40;;;3.90;;
5042;SDS011;2540;50.928;6.856;2023-04-23T08:05:56;7.33;;;3.93;;
5042;SDS011;2540;50.928;6.856;2023-04-23T08:08:22;6.73;;;3.40;;
5042;SDS011;2540;50.928;6.856;2023-04-23T08:10:47;4.67;;;2.93;;
5042;SDS011;2540;50.928;6.856;2023-04-23T08:13:12;4.83;;;2.87;;
5042;SDS011;2540;50.928;6.856;2023-04-23T08:15:38;4.80;;;3.00;;
5042;SDS011;2540;50.928;6.856;2023-04-23T08:18:03;5.30;;;3.77;;
5042;SDS011;2540;50.928;6.856;2023-04-23T08:20:29;5.77;;;3.30;;
5042;SDS011;2540;50.928;6.856;2023-04-23T08:22:56;5.00;;;2.80;;
5042;SDS011;2540;50.928;6.856;2023-04-23T08:25:21;3.93;;;2.87;;
5042;SDS011;2540;50.928;6.856;2023-04-23T08:27:46;3.80;;;2.70;;
5042;SDS011;2540;50.928;6.856;2023-04-23T08:30:12;6.33;;;3.37;;
5042;SDS011;2540;50.928;6.856;2023-04-23T08:32:37;5.73;;;3.83;;
5042;SDS011;2540;50.928;6.856;2023-04-23T08:35:03;5.37;;;3.40;;
5042;SDS011;2540;50.928;6.856;2023-04-23T08:37:29;2.80;;;2.57;;
5042;SDS011;2540;50.928;6.856;2023-04-23T08:39:54;3.13;;;2.93;;
5042;SDS011;2540;50.928;6.856;2023-04-23T08:42:23;5.07;;;2.80;;
5042;SDS011;2540;50.928;6.856;2023-04-23T08:44:54;4.10;;;2.90;;
5042;SDS011;2540;50.928;6.856;2023-04-23T08:47:20;7.13;;;3.00;;
5042;SDS011;2540;50.928;6.856;2023-04-23T08:49:48;5.30;;;1.77;;
5042;SDS011;2540;50.928;6.856;2023-04-23T08:52:18;3.30;;;1.83;;
5042;SDS011;2540;50.928;6.856;2023-04-23T08:54:53;4.93;;;2.03;;
5042;SDS011;2540;50.928;6.856;2023-04-23T08:57:19;5.10;;;2.17;;
5042;SDS011;2540;50.928;6.856;2023-04-23T08:59:45;11.47;;;2.67;;
5042;SDS011;2540;50.928;6.856;2023-04-23T09:02:11;3.90;;;1.87;;
5042;SDS011;2540;50.928;6.856;2023-04-23T09:04:37;6.30;;;1.70;;
5042;SDS011;2540;50.928;6.856;2023-04-23T09:07:03;3.13;;;2.00;;
5042;SDS011;2540;50.928;6.856;2023-04-23T09:09:29;5.27;;;2.20;;
5042;SDS011;2540;50.928;6.856;2023-04-23T09:11:55;4.80;;;2.10;;
5042;SDS011;2540;50.928;6.856;2023-04-23T09:14:24;3.17;;;1.80;;
5042;SDS011;2540;50.928;6.856;2023-04-23T09:16:49;2.90;;;1.90;;
5042;SDS011;2540;50.928;6.856;2023-04-23T09:19:15;3.03;;;1.93;;
5042;SDS011;2540;50.928;6.856;2023-04-23T09:21:41;7.33;;;2.70;;
5042;SDS011;2540;50.928;6.856;2023-04-23T09:24:08;2.60;;;1.60;;
5042;SDS011;2540;50.928;6.856;2023-04-23T09:26:35;2.10;;;1.60;;
5042;SDS011;2540;50.928;6.856;2023-04-23T09:29:12;6.13;;;2.00;;
5042;SDS011;2540;50.928;6.856;2023-04-23T09:31:42;12.77;;;5.13;;
5042;SDS011;2540;50.928;6.856;2023-04-23T09:34:15;3.63;;;2.20;;
5042;SDS011;2540;50.928;6.856;2023-04-23T09:36:42;4.10;;;1.80;;
5042;SDS011;2540;50.928;6.856;2023-04-23T09:39:12;2.80;;;1.50;;
5042;SDS011;2540;50.928;6.856;2023-04-23T09:41:42;3.37;;;1.50;;
5042;SDS011;2540;50.928;6.856;2023-04-23T09:44:07;2.73;;;1.60;;
5042;SDS011;2540;50.928;6.856;2023-04-23T09:46:40;2.80;;;1.27;;
5042;SDS011;2540;50.928;6.856;2023-04-23T09:49:07;2.17;;;1.70;;
5042;SDS011;2540;50.928;6.856;2023-04-23T09:51:35;4.77;;;1.80;;
5042;SDS011;2540;50.928;6.856;2023-04-23T09:54:14;5.40;;;1.30;;
5042;SDS011;2540;50.928;6.856;2023-04-23T09:56:40;1.80;;;1.40;;
5042;SDS011;2540;50.928;6.856;2023-04-23T09:59:18;1.90;;;1.27;;
5042;SDS011;2540;50.928;6.856;2023-04-23T10:01:44;3.80;;;1.17;;
5042;SDS011;2540;50.928;6.856;2023-04-23T10:04:11;9.20;;;1.63;;
5042;SDS011;2540;50.928;6.856;2023-04-23T10:06:37;3.70;;;1.43;;
5042;SDS011;2540;50.928;6.856;2023-04-23T10:09:02;1.87;;;1.30;;
5042;SDS011;2540;50.928;6.856;2023-04-23T10:11:28;2.60;;;1.40;;
5042;SDS011;2540;50.928;6.856;2023-04-23T10:13:53;1.20;;;1.10;;
5042;SDS011;2540;50.928;6.856;2023-04-23T10:16:20;2.63;;;1.40;;
5042;SDS011;2540;50.928;6.856;2023-04-23T10:18:46;3.93;;;1.33;;
5042;SDS011;2540;50.928;6.856;2023-04-23T10:21:12;4.53;;;1.23;;
5042;SDS011;2540;50.928;6.856;2023-04-23T10:23:39;4.03;;;1.43;;
5042;SDS011;2540;50.928;6.856;2023-04-23T10:26:06;2.00;;;1.43;;
5042;SDS011;2540;50.928;6.856;2023-04-23T10:28:33;4.10;;;1.37;;
5042;SDS011;2540;50.928;6.856;2023-04-23T10:30:59;5.50;;;1.60;;
5042;SDS011;2540;50.928;6.856;2023-04-23T10:33:25;4.63;;;1.43;;
5042;SDS011;2540;50.928;6.856;2023-04-23T10:35:50;7.30;;;1.47;;
5042;SDS011;2540;50.928;6.856;2023-04-23T10:38:16;5.70;;;1.90;;
5042;SDS011;2540;50.928;6.856;2023-04-23T10:40:42;2.03;;;1.40;;
5042;SDS011;2540;50.928;6.856;2023-04-23T10:43:09;2.47;;;1.40;;
5042;SDS011;2540;50.928;6.856;2023-04-23T10:45:34;3.10;;;1.57;;
5042;SDS011;2540;50.928;6.856;2023-04-23T10:48:00;1.87;;;1.30;;
5042;SDS011;2540;50.928;6.856;2023-04-23T10:50:26;1.90;;;1.33;;
5042;SDS011;2540;50.928;6.856;2023-04-23T10:52:52;4.83;;;2.03;;
5042;SDS011;2540;50.928;6.856;2023-04-23T10:55:23;7.73;;;1.00;;
5042;SDS011;2540;50.928;6.856;2023-04-23T10:58:03;1.17;;;1.07;;
5042;SDS011;2540;50.928;6.856;2023-04-23T11:03:27;7.10;;;1.23;;
5042;SDS011;2540;50.928;6.856;2023-04-23T11:06:04;2.20;;;0.97;;
5042;SDS011;2540;50.928;6.856;2023-04-23T11:08:30;9.93;;;0.97;;
5042;SDS011;2540;50.928;6.856;2023-04-23T11:10:58;2.90;;;1.00;;
5042;SDS011;2540;50.928;6.856;2023-04-23T11:13:25;2.10;;;1.10;;
5042;SDS011;2540;50.928;6.856;2023-04-23T11:21:21;2.20;;;0.80;;
5042;SDS011;2540;50.928;6.856;2023-04-23T11:23:47;1.97;;;1.00;;
5042;SDS011;2540;50.928;6.856;2023-04-23T11:26:16;4.43;;;0.90;;
5042;SDS011;2540;50.928;6.856;2023-04-23T11:28:42;7.03;;;1.00;;
5042;SDS011;2540;50.928;6.856;2023-04-23T11:31:08;2.13;;;1.50;;
5042;SDS011;2540;50.928;6.856;2023-04-23T11:33:34;3.63;;;1.13;;
5042;SDS011;2540;50.928;6.856;2023-04-23T11:36:02;2.10;;;1.07;;
5042;SDS011;2540;50.928;6.856;2023-04-23T11:38:31;2.40;;;1.10;;
5042;SDS011;2540;50.928;6.856;2023-04-23T11:40:57;2.87;;;1.10;;
5042;SDS011;2540;50.928;6.856;2023-04-23T11:43:26;3.00;;;1.20;;
5042;SDS011;2540;50.928;6.856;2023-04-23T11:45:53;3.03;;;1.00;;
5042;SDS011;2540;50.928;6.856;2023-04-23T11:48:19;5.47;;;1.37;;
5042;SDS011;2540;50.928;6.856;2023-04-23T11:50:44;2.63;;;1.50;;
5042;SDS011;2540;50.928;6.856;2023-04-23T11:53:10;2.20;;;1.10;;
5042;SDS011;2540;50.928;6.856;2023-04-23T11:55:36;4.50;;;1.67;;
5042;SDS011;2540;50.928;6.856;2023-04-23T11:58:02;3.57;;;1.20;;
5042;SDS011;2540;50.928;6.856;2023-04-23T12:00:27;1.70;;;1.20;;
5042;SDS011;2540;50.928;6.856;2023-04-23T12:02:54;4.83;;;1.23;;
5042;SDS011;2540;50.928;6.856;2023-04-23T12:05:21;3.73;;;1.20;;
5042;SDS011;2540;50.928;6.856;2023-04-23T12:07:47;3.47;;;1.37;;
5042;SDS011;2540;50.928;6.856;2023-04-23T12:10:17;5.03;;;1.30;;
5042;SDS011;2540;50.928;6.856;2023-04-23T12:12:49;4.33;;;1.37;;
5042;SDS011;2540;50.928;6.856;2023-04-23T12:15:15;2.10;;;1.33;;
5042;SDS011;2540;50.928;6.856;2023-04-23T12:17:41;2.57;;;1.40;;
5042;SDS011;2540;50.928;6.856;2023-04-23T12:20:08;3.87;;;1.40;;
5042;SDS011;2540;50.928;6.856;2023-04-23T12:22:36;3.00;;;1.50;;
5042;SDS011;2540;50.928;6.856;2023-04-23T12:25:03;2.20;;;1.10;;
5042;SDS011;2540;50.928;6.856;2023-04-23T12:27:31;4.53;;;1.50;;
5042;SDS011;2540;50.928;6.856;2023-04-23T12:29:58;8.13;;;1.40;;
5042;SDS011;2540;50.928;6.856;2023-04-23T12:32:26;2.40;;;1.50;;
5042;SDS011;2540;50.928;6.856;2023-04-23T12:34:52;2.77;;;1.20;;
5042;SDS011;2540;50.928;6.856;2023-04-23T12:37:22;4.80;;;1.10;;
5042;SDS011;2540;50.928;6.856;2023-04-23T12:39:52;4.40;;;1.10;;
5042;SDS011;2540;50.928;6.856;2023-04-23T12:42:20;4.77;;;1.10;;
5042;SDS011;2540;50.928;6.856;2023-04-23T12:44:45;5.40;;;1.37;;
5042;SDS011;2540;50.928;6.856;2023-04-23T12:47:11;4.63;;;1.43;;
5042;SDS011;2540;50.928;6.856;2023-04-23T12:49:39;2.83;;;1.37;;
5042;SDS011;2540;50.928;6.856;2023-04-23T12:52:05;1.00;;;0.90;;
5042;SDS011;2540;50.928;6.856;2023-04-23T12:54:31;1.50;;;1.20;;
5042;SDS011;2540;50.928;6.856;2023-04-23T12:57:01;6.30;;;2.13;;
5042;SDS011;2540;50.928;6.856;2023-04-23T12:59:27;5.63;;;1.50;;
5042;SDS011;2540;50.928;6.856;2023-04-23T13:01:52;2.80;;;1.00;;
5042;SDS011;2540;50.928;6.856;2023-04-23T13:04:18;1.53;;;1.20;;
5042;SDS011;2540;50.928;6.856;2023-04-23T13:06:43;3.50;;;1.30;;
5042;SDS011;2540;50.928;6.856;2023-04-23T13:09:08;1.93;;;1.10;;
5042;SDS011;2540;50.928;6.856;2023-04-23T13:11:38;4.73;;;1.70;;
5042;SDS011;2540;50.928;6.856;2023-04-23T13:14:04;3.23;;;1.00;;
5042;SDS011;2540;50.928;6.856;2023-04-23T13:16:30;2.80;;;1.20;;
5042;SDS011;2540;50.928;6.856;2023-04-23T13:18:55;3.37;;;1.80;;
5042;SDS011;2540;50.928;6.856;2023-04-23T13:21:20;3.73;;;1.20;;
5042;SDS011;2540;50.928;6.856;2023-04-23T13:23:46;3.00;;;1.37;;
5042;SDS011;2540;50.928;6.856;2023-04-23T13:26:11;2.30;;;1.10;;
5042;SDS011;2540;50.928;6.856;2023-04-23T13:28:37;4.00;;;1.00;;
5042;SDS011;2540;50.928;6.856;2023-04-23T13:31:02;1.83;;;1.03;;
5042;SDS011;2540;50.928;6.856;2023-04-23T13:33:28;3.43;;;1.23;;
5042;SDS011;2540;50.928;6.856;2023-04-23T13:35:54;1.47;;;0.90;;
5042;SDS011;2540;50.928;6.856;2023-04-23T13:38:21;3.70;;;0.80;;
5042;SDS011;2540;50.928;6.856;2023-04-23T13:40:47;2.10;;;0.90;;
5042;SDS011;2540;50.928;6.856;2023-04-23T13:43:12;3.70;;;1.27;;
5042;SDS011;2540;50.928;6.856;2023-04-23T13:45:37;2.00;;;1.20;;
5042;SDS011;2540;50.928;6.856;2023-04-23T13:48:03;2.80;;;1.13;;
5042;SDS011;2540;50.928;6.856;2023-04-23T13:50:29;7.90;;;0.93;;
5042;SDS011;2540;50.928;6.856;2023-04-23T13:52:54;3.53;;;1.27;;
5042;SDS011;2540;50.928;6.856;2023-04-23T13:55:20;4.40;;;1.40;;
5042;SDS011;2540;50.928;6.856;2023-04-23T13:57:45;1.10;;;0.97;;
5042;SDS011;2540;50.928;6.856;2023-04-23T14:00:11;3.00;;;1.00;;
5042;SDS011;2540;50.928;6.856;2023-04-23T14:02:37;3.13;;;0.90;;
5042;SDS011;2540;50.928;6.856;2023-04-23T14:05:02;1.93;;;1.10;;
5042;SDS011;2540;50.928;6.856;2023-04-23T14:07:30;5.60;;;1.20;;
5042;SDS011;2540;50.928;6.856;2023-04-23T14:09:56;2.63;;;1.20;;
5042;SDS011;2540;50.928;6.856;2023-04-23T14:12:21;3.33;;;1.20;;
5042;SDS011;2540;50.928;6.856;2023-04-23T14:14:48;4.90;;;1.67;;
5042;SDS011;2540;50.928;6.856;2023-04-23T14:17:13;2.93;;;1.00;;
5042;SDS011;2540;50.928;6.856;2023-04-23T14:19:39;2.40;;;1.10;;
5042;SDS011;2540;50.928;6.856;2023-04-23T14:22:04;6.30;;;1.27;;
5042;SDS011;2540;50.928;6.856;2023-04-23T14:24:33;3.53;;;1.50;;
5042;SDS011;2540;50.928;6.856;2023-04-23T14:27:02;2.10;;;1.10;;
5042;SDS011;2540;50.928;6.856;2023-04-23T14:29:35;1.33;;;1.10;;
5042;SDS011;2540;50.928;6.856;2023-04-23T14:32:05;3.20;;;1.20;;
5042;SDS011;2540;50.928;6.856;2023-04-23T14:34:30;2.83;;;1.43;;
5042;SDS011;2540;50.928;6.856;2023-04-23T14:36:56;1.93;;;1.43;;
5042;SDS011;2540;50.928;6.856;2023-04-23T14:39:22;1.37;;;1.27;;
5042;SDS011;2540;50.928;6.856;2023-04-23T14:41:49;1.40;;;1.30;;
5042;SDS011;2540;50.928;6.856;2023-04-23T14:44:14;2.20;;;1.83;;
5042;SDS011;2540;50.928;6.856;2023-04-23T14:46:40;4.10;;;1.83;;
5042;SDS011;2540;50.928;6.856;2023-04-23T14:49:05;3.50;;;2.00;;
5042;SDS011;2540;50.928;6.856;2023-04-23T14:51:30;2.23;;;1.87;;
5042;SDS011;2540;50.928;6.856;2023-04-23T14:53:56;3.50;;;2.20;;
5042;SDS011;2540;50.928;6.856;2023-04-23T14:56:21;2.13;;;1.93;;
5042;SDS011;2540;50.928;6.856;2023-04-23T14:58:46;2.90;;;1.90;;
5042;SDS011;2540;50.928;6.856;2023-04-23T15:01:12;2.73;;;2.00;;
5042;SDS011;2540;50.928;6.856;2023-04-23T15:03:37;2.60;;;1.90;;